• Join FlightAware (Why Join?)
  • Login
  • US Flag 
01:42AM EST


 

Airport Tracker/Info


-or-


 

Live Flight TrackerFlight Track Log ✈ N287MC ✈ 28-Jul-2013 ✈ KLAS - KSGR

Flight Track Log - Related Links

Times and Time Zones

All times are in EDT time to prevent confusion due to time zone crossing. See the N287MC flight status page for this flight to view local times or setup timezone preferences in your user account.

Time Position Orientation Groundspeed Altitude Reporting Facility
EDT Latitude Longitude Course Direction KTS MPH feet Rate Location/Type
01:34PM 36.0625 -115.1753 205° Southwest 192 221 3,400  Level Los Angeles Center
01:35PM 36.0183 -115.2006 205° Southwest 176 203 6,100 2,580 Climbing Los Angeles Center
01:35PM 35.9986 -115.2331 233° Southwest 192 221 7,600 2,520 Climbing Los Angeles Center
01:36PM 35.9603 -115.2933 232° Southwest 226 260 10,300 2,580 Climbing Los Angeles Center
01:37PM 35.9194 -115.2389 133° Southeast 239 275 13,000 2,280 Climbing Los Angeles Center
01:38PM 35.9181 -115.1458 91° East 265 305 15,100 1,980 Climbing Los Angeles Center
01:40PM 35.9186 -115.0411 90° East 290 334 17,200 2,040 Climbing Los Angeles Center
01:41PM 35.9183 -114.9267 90° East 322 371 19,400 2,220 Climbing Los Angeles Center
01:42PM 35.9203 -114.7831 89° East 348 400 21,800 2,040 Climbing Los Angeles Center
01:43PM 35.9211 -114.6619 89° East 354 407 23,700 1,680 Climbing Los Angeles Center
01:44PM 35.9239 -114.5375 88° East 362 417 25,300 1,500 Climbing Los Angeles Center
01:45PM 35.9214 -114.4114 91° East 368 423 26,900 1,320 Climbing Los Angeles Center
01:46PM 35.9217 -114.2828 90° East 372 428 28,100 1,200 Climbing Los Angeles Center
01:47PM 35.9211 -114.1508 90° East 381 438 29,500 1,260 Climbing Los Angeles Center
01:48PM 35.9219 -113.9883 90° East 391 450 30,800 1,140 Climbing Los Angeles Center
01:49PM 35.9161 -113.8511 93° East 398 458 31,900 1,140 Climbing Los Angeles Center
01:50PM 35.8842 -113.7217 107° East 393 452 33,200 1,080 Climbing Los Angeles Center
01:51PM 35.8592 -113.5917 103° East 392 451 34,200 840 Climbing Los Angeles Center
01:52PM 35.8306 -113.4431 103° East 397 457 35,000 780 Climbing Los Angeles Center
01:53PM 35.8011 -113.3092 105° East 404 465 35,900 720 Climbing Los Angeles Center
01:54PM 35.7733 -113.1758 104° East 404 465 36,500 600 Climbing Los Angeles Center
01:55PM 35.7458 -113.0392 104° East 408 470 37,200 540 Climbing Los Angeles Center
01:56PM 35.7158 -112.9022 105° East 412 474 37,700 660 Climbing Los Angeles Center
01:57PM 35.6817 -112.7389 104° East 418 481 38,600 540 Climbing Los Angeles Center
01:58PM 35.6506 -112.5961 105° East 422 486 38,900 420 Climbing Los Angeles Center
01:59PM 35.6206 -112.4558 105° East 423 487 39,500 420 Climbing Los Angeles Center
02:00PM 35.5836 -112.3175 108° East 427 491 39,800 360 Climbing Los Angeles Center
02:01PM 35.5372 -112.1861 113° Southeast 420 483 40,300 360 Climbing Los Angeles Center
02:02PM 35.4922 -112.0514 112° Southeast 426 490 40,600 240 Climbing Los Angeles Center
02:03PM 35.4478 -111.9172 112° Southeast 426 490 40,800 180 Climbing Los Angeles Center
02:04PM 35.3919 -111.7550 113° Southeast 432 497 41,000 60 Climbing Los Angeles Center
02:05PM 35.3450 -111.6175 113° Southeast 434 499 41,000  Level Albuquerque Center
02:06PM 35.2997 -111.4867 113° Southeast 443 510 41,000  Level Albuquerque Center
02:07PM 35.2511 -111.3436 113° Southeast 451 519 41,000  Level Albuquerque Center
02:08PM 35.2008 -111.2003 113° Southeast 455 524 41,000  Level Albuquerque Center
02:09PM 35.1428 -111.0278 112° Southeast 458 527 41,000  Level Albuquerque Center
02:11PM 35.0947 -110.8903 113° Southeast 459 528 41,000  Level Albuquerque Center
02:12PM 35.0247 -110.7406 120° Southeast 457 526 41,000  Level Albuquerque Center
02:13PM 34.9483 -110.6311 130° Southeast 446 513 41,000  Level Albuquerque Center
02:14PM 34.8750 -110.5192 129° Southeast 443 510 41,000  Level Albuquerque Center
02:15PM 34.7875 -110.3903 130° Southeast 443 510 41,000  Level Albuquerque Center
02:16PM 34.7111 -110.2783 130° Southeast 447 514 41,000  Level Albuquerque Center
02:17PM 34.6208 -110.1464 130° Southeast 451 519 41,000  Level Albuquerque Center
02:18PM 34.5422 -110.0328 130° Southeast 456 525 41,000  Level Albuquerque Center
02:19PM 34.4528 -109.9022 130° Southeast 454 522 41,000  Level Albuquerque Center
02:20PM 34.3761 -109.7906 130° Southeast 452 520 41,000  Level Albuquerque Center
02:21PM 34.2856 -109.6611 130° Southeast 452 520 41,000  Level Albuquerque Center
02:22PM 34.2072 -109.5481 130° Southeast 456 525 41,000  Level Albuquerque Center
02:23PM 34.1258 -109.4317 130° Southeast 455 524 41,000  Level Albuquerque Center
02:24PM 34.0436 -109.3142 130° Southeast 456 525 41,000  Level Albuquerque Center
02:25PM 33.9622 -109.1975 130° Southeast 456 525 41,000  Level Albuquerque Center
02:26PM 33.8797 -109.0822 131° Southeast 455 524 41,000  Level Albuquerque Center
02:27PM 33.7978 -108.9667 130° Southeast 454 522 41,000  Level Albuquerque Center
02:28PM 33.6978 -108.8278 131° Southeast 456 525 41,000  Level Albuquerque Center
02:29PM 33.6150 -108.7122 131° Southeast 456 525 41,000  Level Albuquerque Center
02:30PM 33.5319 -108.5947 130° Southeast 458 527 41,000  Level Albuquerque Center
02:31PM 33.4478 -108.4781 131° Southeast 460 529 41,000  Level Albuquerque Center
02:32PM 33.3639 -108.3625 131° Southeast 459 528 41,000  Level Albuquerque Center
02:33PM 33.2819 -108.2492 131° Southeast 453 521 41,000  Level Albuquerque Center
02:34PM 33.1903 -108.1258 132° Southeast 451 519 41,000  Level Albuquerque Center
02:35PM 33.1014 -108.0203 135° Southeast 451 519 41,000  Level Albuquerque Center
02:36PM 33.0122 -107.9131 135° Southeast 454 522 41,000  Level Albuquerque Center
02:37PM 32.9186 -107.8131 138° Southeast 453 521 41,000  Level Albuquerque Center
02:38PM 32.8267 -107.7106 137° Southeast 454 522 41,000  Level Albuquerque Center
02:39PM 32.7428 -107.5989 132° Southeast 455 524 41,000  Level Albuquerque Center
02:40PM 32.6547 -107.4647 128° Southeast 459 528 41,000  Level Albuquerque Center
02:41PM 32.5781 -107.3447 127° Southeast 458 527 41,000  Level Albuquerque Center
02:42PM 32.5000 -107.2253 128° Southeast 458 527 41,000  Level Albuquerque Center
02:43PM 32.4119 -107.0897 128° Southeast 455 524 41,000  Level Albuquerque Center
02:44PM 32.3286 -106.9625 128° Southeast 454 522 41,000  Level Albuquerque Center
02:45PM 32.2508 -106.8514 130° Southeast 453 521 41,000  Level Albuquerque Center
02:47PM 32.1656 -106.7414 132° Southeast 454 522 41,000  Level Albuquerque Center
02:48PM 32.0825 -106.6300 131° Southeast 454 522 41,000  Level Albuquerque Center
02:49PM 31.9983 -106.5197 132° Southeast 453 521 41,000  Level Albuquerque Center
02:50PM 31.8992 -106.3914 132° Southeast 457 526 41,000  Level Albuquerque Center
02:51PM 31.8167 -106.2781 131° Southeast 460 529 41,000  Level Albuquerque Center
02:52PM 31.7792 -106.1319 107° East 467 537 41,000  Level Albuquerque Center
02:53PM 31.7436 -105.9908 106° East 452 520 41,000  Level Albuquerque Center
02:54PM 31.7072 -105.8481 107° East 455 524 41,000  Level Albuquerque Center
02:55PM 31.6722 -105.7042 106° East 458 527 41,000  Level Albuquerque Center
02:56PM 31.6364 -105.5614 106° East 456 525 41,000  Level Albuquerque Center
02:57PM 31.5925 -105.3894 107° East 458 527 41,000  Level Albuquerque Center
02:58PM 31.5561 -105.2469 107° East 455 524 41,000  Level Albuquerque Center
02:59PM 31.5200 -105.1031 106° East 456 525 41,000  Level Albuquerque Center
03:00PM 31.4842 -104.9611 106° East 456 525 41,000  Level Albuquerque Center
03:01PM 31.4467 -104.8192 107° East 453 521 41,000  Level Albuquerque Center
03:02PM 31.4094 -104.6744 107° East 458 527 41,000  Level Albuquerque Center
03:03PM 31.3717 -104.5317 107° East 458 527 41,000  Level Albuquerque Center
03:04PM 31.3353 -104.3892 107° East 458 527 41,000  Level Albuquerque Center
03:05PM 31.2906 -104.2183 107° East 457 526 41,000  Level Albuquerque Center
03:06PM 31.2519 -104.0758 108° East 459 528 41,000  Level Albuquerque Center
03:07PM 31.2136 -103.9347 108° East 456 525 41,000  Level Albuquerque Center
03:08PM 31.1764 -103.7925 107° East 459 528 41,000  Level Albuquerque Center
03:09PM 31.1294 -103.6319 109° East 460 529 41,000  Level Albuquerque Center
03:10PM 31.0914 -103.4917 108° East 456 525 41,000  Level Albuquerque Center
03:11PM 31.0522 -103.3503 108° East 458 527 41,000  Level Albuquerque Center
03:12PM 31.0136 -103.2114 108° East 455 524 41,000  Level Albuquerque Center
03:13PM 30.9761 -103.0725 107° East 453 521 41,000  Level Albuquerque Center
03:14PM 30.9381 -102.9331 108° East 452 520 41,000  Level Albuquerque Center
03:15PM 30.8931 -102.7644 107° East 455 524 41,000  Level Albuquerque Center
03:16PM 30.8556 -102.6242 107° East 457 526 41,000  Level Albuquerque Center
03:17PM 30.8167 -102.4842 108° East 459 528 41,000  Level Albuquerque Center
03:18PM 30.7853 -102.3711 108° East 458 527 41,000  Level Houston Center
03:19PM 30.7481 -102.2306 107° East 459 528 41,000  Level Houston Center
03:20PM 30.7097 -102.0911 108° East 458 527 41,000  Level Houston Center
03:21PM 30.6706 -101.9514 108° East 458 527 41,000  Level Houston Center
03:22PM 30.6239 -101.7833 108° East 459 528 41,000  Level Houston Center
03:23PM 30.5850 -101.6442 108° East 457 526 41,000  Level Houston Center
03:24PM 30.5467 -101.5053 108° East 455 524 41,000  Level Houston Center
03:25PM 30.5075 -101.3658 108° East 455 524 41,000  Level Houston Center
03:26PM 30.4669 -101.2272 109° East 455 524 41,000  Level Houston Center
03:28PM 30.4278 -101.0906 108° East 452 520 41,000  Level Houston Center
03:29PM 30.3811 -100.9236 108° East 454 522 41,000  Level Houston Center
03:30PM 30.3408 -100.7861 109° East 452 520 41,000  Level Houston Center
03:31PM 30.3006 -100.6481 109° East 451 519 41,000  Level Houston Center
03:32PM 30.2611 -100.5089 108° East 453 521 41,000  Level Houston Center
03:33PM 30.2208 -100.3686 108° East 455 524 41,000  Level Houston Center
03:34PM 30.1819 -100.2253 107° East 457 526 41,000  Level Houston Center
03:35PM 30.1383 -100.0808 109° East 465 535 41,000  Level Houston Center
03:36PM 30.0953 -99.9425 110° East 455 524 41,000  Level Houston Center
03:37PM 30.0450 -99.7772 109° East 455 524 41,000  Level Houston Center
03:38PM 30.0039 -99.6397 109° East 453 521 41,000  Level Houston Center
03:39PM 29.9628 -99.5022 109° East 454 522 41,000  Level Houston Center
03:40PM 29.9222 -99.3664 109° East 450 518 41,000 -420 Level Houston Center
03:41PM 29.8808 -99.2289 109° East 456 525 40,200 -960 Descending Houston Center
03:42PM 29.8311 -99.0653 109° East 462 532 39,100 -1,020 Descending Houston Center
03:43PM 29.7878 -98.9267 110° East 460 529 38,100 -1,020 Descending Houston Center
03:44PM 29.7419 -98.7772 109° East 460 529 37,000 -1,020 Descending Houston Center
03:45PM 29.7003 -98.6400 109° East 454 522 36,000 -1,020 Descending Houston Center
03:46PM 29.6581 -98.5017 109° East 456 525 35,000 -540 Descending Houston Center
03:47PM 29.6106 -98.3444 109° East 477 549 35,000  Level Houston Center
03:48PM 29.5636 -98.2092 112° Southeast 457 526 35,000  Level Houston Center
03:49PM 29.5161 -98.0608 110° East 459 528 35,000 -240 Level Houston Center
03:50PM 29.4711 -97.9233 111° Southeast 461 531 34,500 -720 Descending Houston Center
03:51PM 29.4289 -97.7903 110° East 454 522 33,500 -1,020 Descending Houston Center
03:52PM 29.3844 -97.6550 111° Southeast 455 524 32,500 -1,020 Descending Houston Center
03:53PM 29.3403 -97.5194 110° East 456 525 31,500 -1,020 Descending Houston Center
03:54PM 29.3056 -97.3825 106° East 465 535 30,500 -1,440 Descending Houston Center
03:55PM 29.3058 -97.2119 90° East 451 519 28,600 -1,980 Descending Houston Center
03:56PM 29.3064 -97.0736 90° East 439 505 26,500 -2,100 Descending Houston Center
03:58PM 29.3056 -96.9358 90° East 436 502 24,300 -2,520 Descending Houston Center
03:59PM 29.3058 -96.7844 90° East 428 493 21,300 -2,820 Descending Houston Center
04:00PM 29.3056 -96.6558 90° East 415 478 18,500 -2,640 Descending Houston Center
04:01PM 29.3053 -96.5328 90° East 397 457 15,800 -3,060 Descending Houston Center
04:02PM 29.3044 -96.4164 90° East 370 426 12,500 -2,880 Descending Houston Center
04:03PM 29.3056 -96.3108 89° East 345 397 9,900 -2,280 Descending Houston Center
04:04PM 29.3503 -96.2125 62° Northeast 275 316 7,600 -2,160 Descending Houston Center
04:05PM 29.3836 -96.1369 63° Northeast 264 304 5,600 -1,320 Descending Houston Center
04:06PM 29.4211 -96.0608 60° Northeast 271 312 5,000 -300 Descending Houston Center
04:07PM 29.4561 -95.9825 63° Northeast 272 313 5,000 -540 Level Houston Center
04:08PM 29.4911 -95.9017 64° Northeast 269 310 4,000 -1,020 Descending Houston Center
04:09PM 29.5264 -95.8256 62° Northeast 266 306 3,000 -840 Descending Houston Center
04:10PM 29.5561 -95.7597 63° Northeast 217 250 2,400 -540 Descending Houston Center
04:11PM 29.6097 -95.7247 30° Northeast 208 239 2,000 -420 Descending Houston Center
04:12PM 29.6619 -95.7211 North 182 209 1,600 -300 Descending Houston Center
04:13PM 29.6850 -95.6811 56° Northeast 169 194 1,400 -420 Descending Houston Center
04:14PM 29.6650 -95.6606 138° Southeast 132 152 800 -540 Descending Houston Center
04:15PM 29.6322 -95.6569 175° South 136 157 300 -420 Descending Houston Center